This is the latest recevied weather packets stored in our database for station/object EA3FHP. If no packets are shown the sender has not sent any weather packets the latest 10 day(s).
| Time | Temp. | Humidity | Pressure | Rain* | Wind** | Luminosity | Snow |
|---|---|---|---|---|---|---|---|
| 1777618204 | 14.44° C | 79% | 1023.5 hPa | 0 mm | - | - | - |
| 1777617604 | 13.89° C | 82% | 1023.2 hPa | 0 mm | - | - | - |
| 1777617003 | 13.33° C | 81% | 1022.9 hPa | 0 mm | - | - | - |
| 1777616404 | 13.33° C | 82% | 1023.2 hPa | 0 mm | - | - | - |
| 1777615804 | 12.78° C | 83% | 1023 hPa | 0 mm | - | - | - |
| 1777615205 | 12.78° C | 84% | 1023 hPa | 0 mm | - | - | - |
| 1777614603 | 12.22° C | 85% | 1023.2 hPa | 0 mm | - | - | - |
| 1777614003 | 11.67° C | 86% | 1023 hPa | 0 mm | - | - | - |
| 1777613404 | 11.67° C | 86% | 1022.9 hPa | 0 mm | - | - | - |
| 1777612803 | 11.67° C | 85% | 1022.7 hPa | 0 mm | - | - | - |
| 1777612203 | 11.67° C | 85% | 1022.8 hPa | 0 mm | - | - | - |
| 1777611604 | 12.22° C | 84% | 1022.5 hPa | 0 mm | - | - | - |
| 1777611003 | 12.22° C | 84% | 1022.6 hPa | 0 mm | - | - | - |
| 1777583404 | 13.89° C | 74% | 1021.2 hPa | 0 mm | - | - | - |
| 1777582803 | 13.89° C | 75% | 1021.1 hPa | 0 mm | - | - | - |
| 1777582203 | 13.89° C | 73% | 1020.9 hPa | 0 mm | - | - | - |
| 1777581603 | 14.44° C | 74% | 1020.8 hPa | 0 mm | - | - | - |
| 1777581004 | 14.44° C | 74% | 1020.7 hPa | 0 mm | - | - | - |
| 1777580403 | 15° C | 74% | 1020.5 hPa | 0 mm | - | - | - |
| 1777579803 | 15° C | 74% | 1020.1 hPa | 0 mm | - | - | - |
| 1777579203 | 15.56° C | 75% | 1020.4 hPa | 0 mm | - | - | - |
| 1777578603 | 16.11° C | 73% | 1020.1 hPa | 0 mm | - | - | - |
| 1777578004 | 16.11° C | 73% | 1020 hPa | 0 mm | - | - | - |
| 1777577403 | 15.56° C | 74% | 1019.9 hPa | 0 mm | - | - | - |
| 1777576803 | 15.56° C | 77% | 1019.9 hPa | 0 mm | - | - | - |
* Rain latest hour (hover to see other rain measurements)
** Current wind speed in m/s (hover to see current wind gust speed)